createdAt,value
2022-12-23T00:01:13.521Z,87.20
2022-12-23T00:03:40.241Z,86.15
2022-12-23T00:06:15.425Z,87.30
2022-12-23T00:08:42.702Z,86.29
2022-12-23T00:11:18.615Z,87.92
2022-12-23T00:14:04.560Z,86.32
2022-12-23T00:16:31.197Z,86.46
2022-12-23T00:18:57.766Z,86.49
2022-12-23T00:21:24.266Z,86.48
2022-12-23T00:23:51.595Z,87.21
2022-12-23T00:26:21.699Z,86.84
2022-12-23T00:28:48.556Z,86.67
2022-12-23T00:31:18.586Z,87.14
2022-12-23T00:33:48.039Z,87.17
2022-12-23T00:36:16.815Z,87.19
2022-12-23T00:39:06.819Z,86.98
2022-12-23T00:41:52.393Z,87.31
2022-12-23T00:44:18.996Z,87.38
2022-12-23T00:46:45.788Z,86.67
2022-12-23T00:49:32.898Z,87.07
2022-12-23T00:52:00.138Z,86.69
2022-12-23T00:54:26.852Z,86.62
2022-12-23T00:56:53.776Z,87.30
2022-12-23T00:59:20.411Z,87.14
2022-12-23T01:02:05.852Z,87.03
2022-12-23T01:04:51.325Z,87.03
2022-12-23T01:07:17.859Z,87.63
2022-12-23T01:09:44.638Z,87.24
2022-12-23T01:12:11.198Z,87.47
2022-12-23T01:14:37.931Z,87.48
2022-12-23T01:17:07.048Z,87.79
2022-12-23T01:19:33.861Z,87.38
2022-12-23T01:22:00.372Z,86.87
2022-12-23T01:24:31.385Z,87.45
2022-12-23T01:26:58.156Z,87.43
2022-12-23T01:29:25.393Z,86.67
2022-12-23T01:31:52.105Z,87.04
2022-12-23T01:34:18.901Z,86.80
2022-12-23T01:36:45.419Z,87.60
2022-12-23T01:39:12.297Z,87.54
2022-12-23T01:41:57.205Z,86.97
2022-12-23T01:45:01.983Z,88.02
2022-12-23T01:47:34.665Z,87.41
2022-12-23T01:50:43.657Z,88.37
2022-12-23T01:53:24.113Z,87.76
2022-12-23T01:56:02.869Z,87.37
2022-12-23T01:58:39.222Z,86.84
2022-12-23T02:01:25.450Z,87.73
2022-12-23T02:03:56.137Z,87.28
2022-12-23T02:06:47.748Z,88.14
2022-12-23T02:09:17.396Z,87.00
2022-12-23T02:12:07.286Z,88.03
2022-12-23T02:14:55.961Z,88.42
2022-12-23T02:17:41.765Z,87.51
2022-12-23T02:20:49.221Z,88.95
2022-12-23T02:23:30.927Z,87.53
2022-12-23T02:26:18.173Z,87.70
2022-12-23T02:29:06.445Z,87.55
2022-12-23T02:31:49.381Z,87.55
2022-12-23T02:34:18.678Z,88.17
2022-12-23T02:37:03.015Z,87.94
2022-12-23T02:39:48.385Z,88.17
2022-12-23T02:42:22.268Z,88.33
2022-12-23T02:45:00.143Z,87.96
2022-12-23T02:47:36.341Z,87.85
2022-12-23T02:50:10.454Z,87.71
2022-12-23T02:52:39.088Z,87.25
2022-12-23T02:55:12.633Z,87.59
2022-12-23T02:57:44.735Z,87.36
2022-12-23T03:00:12.639Z,87.79
2022-12-23T03:02:41.737Z,87.76
2022-12-23T03:05:28.823Z,88.80
2022-12-23T03:07:59.620Z,88.04
2022-12-23T03:10:55.372Z,88.15
2022-12-23T03:13:21.772Z,88.10
2022-12-23T03:16:06.203Z,88.11
2022-12-23T03:19:11.224Z,88.69
2022-12-23T03:22:02.855Z,88.20
2022-12-23T03:24:43.600Z,87.22
2022-12-23T03:27:20.395Z,87.94
2022-12-23T03:30:02.042Z,88.65
2022-12-23T03:32:32.228Z,87.79
2022-12-23T03:35:00.723Z,87.58
2022-12-23T03:37:30.034Z,87.73
2022-12-23T03:40:10.355Z,88.91
2022-12-23T03:42:40.533Z,88.58
2022-12-23T03:45:40.717Z,88.34
2022-12-23T03:48:37.603Z,89.40
2022-12-23T03:51:14.310Z,89.41
2022-12-23T03:54:03.697Z,89.09
2022-12-23T03:56:35.449Z,88.50
2022-12-23T03:59:11.799Z,88.84
2022-12-23T04:01:44.648Z,88.77
2022-12-23T04:04:33.382Z,88.92
2022-12-23T04:07:10.191Z,88.46
2022-12-23T04:09:38.097Z,87.78
2022-12-23T04:12:05.195Z,88.29
2022-12-23T04:14:34.509Z,88.15
2022-12-23T04:17:01.418Z,88.49
2022-12-23T04:19:28.101Z,87.78
2022-12-23T04:21:56.833Z,88.31
2022-12-23T04:24:23.643Z,88.65
2022-12-23T04:26:50.153Z,88.57
2022-12-23T04:29:16.751Z,88.79
2022-12-23T04:31:43.318Z,87.29
2022-12-23T04:34:09.796Z,88.84
2022-12-23T04:36:36.298Z,88.82
2022-12-23T04:39:02.825Z,88.86
2022-12-23T04:41:29.388Z,89.06
2022-12-23T04:43:55.862Z,88.19
2022-12-23T04:46:22.516Z,88.81
2022-12-23T04:48:48.996Z,88.02
2022-12-23T04:51:15.721Z,89.18
2022-12-23T04:53:42.233Z,87.64
2022-12-23T04:56:08.922Z,88.07
2022-12-23T04:58:35.429Z,88.85
2022-12-23T05:01:04.367Z,88.23
2022-12-23T05:03:31.559Z,87.67
2022-12-23T05:05:58.429Z,88.18
2022-12-23T05:08:25.039Z,88.37
2022-12-23T05:10:51.546Z,88.81
2022-12-23T05:13:18.058Z,88.36
2022-12-23T05:15:45.857Z,88.52
2022-12-23T05:18:12.589Z,88.98
2022-12-23T05:20:39.164Z,88.18
2022-12-23T05:23:05.714Z,88.88
2022-12-23T05:25:37.219Z,88.83
2022-12-23T05:28:04.444Z,87.65
2022-12-23T05:30:30.997Z,89.01
2022-12-23T05:32:58.379Z,88.44
2022-12-23T05:35:26.911Z,89.15
2022-12-23T05:37:53.632Z,88.34
2022-12-23T05:40:23.723Z,88.39
2022-12-23T05:42:52.827Z,88.74
2022-12-23T05:45:19.297Z,88.32
2022-12-23T05:47:45.810Z,89.12
2022-12-23T05:50:12.995Z,87.98
2022-12-23T05:52:39.862Z,88.61
2022-12-23T05:55:06.907Z,89.04
2022-12-23T05:57:33.399Z,87.85
2022-12-23T06:00:00.062Z,88.90
2022-12-23T06:02:26.736Z,87.99
2022-12-23T06:04:53.350Z,88.88
2022-12-23T06:07:19.813Z,89.12
2022-12-23T06:09:46.357Z,88.36
2022-12-23T06:12:12.966Z,87.95
2022-12-23T06:14:39.490Z,88.47
2022-12-23T06:17:06.063Z,88.38
2022-12-23T06:19:32.690Z,88.65
2022-12-23T06:21:59.251Z,88.09
2022-12-23T06:24:25.767Z,89.38
2022-12-23T06:26:56.956Z,89.12
2022-12-23T06:29:24.320Z,88.74
2022-12-23T06:31:52.478Z,89.59
2022-12-23T06:34:19.021Z,89.09
2022-12-23T06:36:45.714Z,88.65
2022-12-23T06:39:12.280Z,89.37
2022-12-23T06:41:38.966Z,90.54
2022-12-23T06:44:05.767Z,90.38
2022-12-23T06:46:32.465Z,91.12
2022-12-23T06:48:59.045Z,92.03
2022-12-23T06:51:25.670Z,92.77
2022-12-23T06:53:52.203Z,93.82
2022-12-23T06:56:18.917Z,93.57
2022-12-23T06:58:45.637Z,93.84
2022-12-23T07:01:12.505Z,94.25
2022-12-23T07:03:39.260Z,94.11
2022-12-23T07:06:06.304Z,95.38
2022-12-23T07:08:32.800Z,94.45
2022-12-23T07:11:04.017Z,97.29
2022-12-23T07:13:32.116Z,95.91
2022-12-23T07:15:59.463Z,95.58
2022-12-23T07:18:26.300Z,96.06
2022-12-23T07:20:52.840Z,96.62
2022-12-23T07:23:19.415Z,97.37
2022-12-23T07:25:46.065Z,98.10
2022-12-23T07:28:12.614Z,100.00
2022-12-23T07:30:39.134Z,100.00
2022-12-23T07:33:05.716Z,100.00
2022-12-23T07:35:32.199Z,100.00
2022-12-23T07:37:58.722Z,100.00
2022-12-23T07:40:26.400Z,100.00
2022-12-23T07:42:58.605Z,100.00
2022-12-23T07:45:29.900Z,100.00
2022-12-23T07:47:58.368Z,100.00
2022-12-23T07:50:25.727Z,100.00
2022-12-23T07:52:53.207Z,100.00
2022-12-23T07:55:20.612Z,100.00
2022-12-23T07:57:51.612Z,100.00
2022-12-23T08:00:20.144Z,100.00
2022-12-23T08:02:48.073Z,100.00
2022-12-23T08:05:15.641Z,100.00
2022-12-23T08:07:42.503Z,100.00
2022-12-23T08:10:09.892Z,100.00
2022-12-23T08:12:36.533Z,100.00
2022-12-23T08:15:03.760Z,100.00
2022-12-23T08:17:30.905Z,100.00
2022-12-23T08:19:57.544Z,100.00
2022-12-23T08:22:24.705Z,100.00
2022-12-23T08:24:52.795Z,100.00
2022-12-23T08:27:19.287Z,100.00
2022-12-23T08:29:45.879Z,100.00
2022-12-23T08:32:12.713Z,100.00
2022-12-23T08:34:39.393Z,100.00
2022-12-23T08:37:05.998Z,100.00
2022-12-23T08:39:32.615Z,100.00
2022-12-23T08:41:59.134Z,100.00
2022-12-23T08:44:27.873Z,100.00
2022-12-23T08:46:55.540Z,100.00
2022-12-23T08:49:22.720Z,100.00
2022-12-23T08:51:49.899Z,100.00
2022-12-23T08:54:17.525Z,100.00
2022-12-23T08:56:44.095Z,100.00
2022-12-23T08:59:18.579Z,100.00
2022-12-23T09:01:46.827Z,100.00
2022-12-23T09:04:13.577Z,100.00
2022-12-23T09:06:42.140Z,100.00
2022-12-23T09:09:10.979Z,100.00
2022-12-23T09:11:38.794Z,100.00
2022-12-23T09:14:06.618Z,100.00
2022-12-23T09:16:33.193Z,100.00
2022-12-23T09:18:59.937Z,100.00
2022-12-23T09:21:26.866Z,100.00
2022-12-23T09:23:53.485Z,100.00
2022-12-23T09:26:25.786Z,100.00
2022-12-23T09:28:52.869Z,100.00
2022-12-23T09:31:20.577Z,100.00
2022-12-23T09:33:49.426Z,100.00
2022-12-23T09:36:16.813Z,100.00
2022-12-23T09:38:43.475Z,100.00
2022-12-23T09:41:34.824Z,100.00
2022-12-23T09:44:30.640Z,100.00
2022-12-23T09:47:02.083Z,100.00
2022-12-23T09:49:28.961Z,100.00
2022-12-23T09:52:01.628Z,100.00
2022-12-23T09:54:32.701Z,100.00
2022-12-23T09:57:06.272Z,100.00
2022-12-23T09:59:48.147Z,100.00
2022-12-23T10:02:27.508Z,100.00
2022-12-23T10:05:14.745Z,100.00
2022-12-23T10:07:49.480Z,100.00
2022-12-23T10:10:37.478Z,100.00
2022-12-23T10:13:06.365Z,100.00
2022-12-23T10:15:39.081Z,100.00
2022-12-23T10:18:17.928Z,100.00
2022-12-23T10:21:03.006Z,100.00
2022-12-23T10:23:37.630Z,100.00
2022-12-23T10:26:16.246Z,100.00
2022-12-23T10:28:42.798Z,100.00
2022-12-23T10:31:39.883Z,100.00
2022-12-23T10:34:17.443Z,100.00
2022-12-23T10:37:02.679Z,100.00
2022-12-23T10:39:38.026Z,100.00
2022-12-23T10:42:19.482Z,100.00
2022-12-23T10:45:01.486Z,100.00
2022-12-23T10:47:51.903Z,100.00
2022-12-23T10:50:28.743Z,100.00
2022-12-23T10:52:58.131Z,100.00
2022-12-23T10:55:33.477Z,100.00
2022-12-23T10:58:07.936Z,100.00
2022-12-23T11:00:38.962Z,100.00
2022-12-23T11:03:15.284Z,100.00
2022-12-23T11:05:43.353Z,100.00
2022-12-23T11:08:11.166Z,100.00
2022-12-23T11:10:39.712Z,100.00
2022-12-23T11:13:06.750Z,100.00
2022-12-23T11:15:35.140Z,100.00
2022-12-23T11:18:05.470Z,100.00
2022-12-23T11:20:33.516Z,100.00
2022-12-23T11:23:02.280Z,100.00
2022-12-23T11:25:29.065Z,100.00
2022-12-23T11:28:06.321Z,100.00
2022-12-23T11:30:56.469Z,100.00
2022-12-23T11:33:31.025Z,100.00
2022-12-23T11:36:12.826Z,100.00
2022-12-23T11:38:52.660Z,100.00
2022-12-23T11:41:26.202Z,100.00
2022-12-23T11:44:07.251Z,100.00
2022-12-23T11:46:34.897Z,100.00
2022-12-23T11:49:22.675Z,100.00
2022-12-23T11:52:13.682Z,100.00
2022-12-23T11:54:40.304Z,100.00
2022-12-23T11:57:17.128Z,100.00
2022-12-23T11:59:49.818Z,100.00
2022-12-23T12:02:40.942Z,100.00
2022-12-23T12:05:22.923Z,100.00
2022-12-23T12:07:51.564Z,100.00
2022-12-23T12:10:25.142Z,100.00
2022-12-23T12:12:56.550Z,100.00
2022-12-23T12:15:44.740Z,100.00
2022-12-23T12:18:15.508Z,100.00
2022-12-23T12:20:46.444Z,100.00
2022-12-23T12:23:23.152Z,100.00
2022-12-23T12:26:01.979Z,100.00
2022-12-23T12:28:31.355Z,100.00
2022-12-23T12:31:06.012Z,100.00
2022-12-23T12:33:49.030Z,100.00
2022-12-23T12:36:43.429Z,100.00
2022-12-23T12:39:24.971Z,100.00
2022-12-23T12:42:01.828Z,100.00
2022-12-23T12:44:44.329Z,100.00
2022-12-23T12:47:51.878Z,100.00
2022-12-23T12:50:16.107Z,100.00
2022-12-23T12:52:43.932Z,100.00
2022-12-23T12:55:20.069Z,100.00
2022-12-23T12:57:46.784Z,100.00
2022-12-23T13:00:22.275Z,100.00
2022-12-23T13:03:26.027Z,100.00
2022-12-23T13:06:06.723Z,100.00
2022-12-23T13:09:00.034Z,100.00
2022-12-23T13:11:45.332Z,100.00
2022-12-23T13:14:41.495Z,100.00
2022-12-23T13:17:18.563Z,100.00
2022-12-23T13:19:59.510Z,100.00
2022-12-23T13:22:32.983Z,100.00
2022-12-23T13:25:17.872Z,100.00
2022-12-23T13:27:46.246Z,100.00
2022-12-23T13:30:20.431Z,100.00
2022-12-23T13:33:07.012Z,100.00
2022-12-23T13:35:45.867Z,100.00
2022-12-23T13:38:18.901Z,100.00
2022-12-23T13:40:57.590Z,100.00
2022-12-23T13:43:26.362Z,100.00
2022-12-23T13:45:55.439Z,100.00
2022-12-23T13:48:43.752Z,100.00
2022-12-23T13:51:17.932Z,100.00
2022-12-23T13:54:05.107Z,100.00
2022-12-23T13:56:31.847Z,100.00
2022-12-23T13:58:58.912Z,100.00
2022-12-23T14:01:43.535Z,100.00
2022-12-23T14:04:28.568Z,100.00
2022-12-23T14:06:57.863Z,100.00
2022-12-23T14:09:32.332Z,100.00
2022-12-23T14:12:10.751Z,100.00
2022-12-23T14:14:50.195Z,100.00
2022-12-23T14:17:29.625Z,100.00
2022-12-23T14:20:08.441Z,100.00
2022-12-23T14:23:05.640Z,100.00
2022-12-23T14:25:48.386Z,100.00
2022-12-23T14:28:45.421Z,100.00
2022-12-23T14:31:34.067Z,100.00
2022-12-23T14:34:26.389Z,100.00
2022-12-23T14:37:16.737Z,100.00
2022-12-23T14:39:44.985Z,100.00
2022-12-23T14:42:18.731Z,100.00
2022-12-23T14:44:54.540Z,100.00
2022-12-23T14:47:32.141Z,100.00
2022-12-23T14:50:35.863Z,100.00
2022-12-23T14:53:21.698Z,100.00
2022-12-23T14:55:50.478Z,100.00
2022-12-23T14:58:36.404Z,100.00
2022-12-23T15:01:09.973Z,100.00
2022-12-23T15:03:43.762Z,100.00
2022-12-23T15:06:24.650Z,100.00
2022-12-23T15:08:53.513Z,100.00
2022-12-23T15:11:31.481Z,100.00
2022-12-23T15:14:02.260Z,100.00
2022-12-23T15:16:36.047Z,100.00
2022-12-23T15:19:23.217Z,100.00
2022-12-23T15:21:59.581Z,100.00
2022-12-23T15:24:31.369Z,100.00
2022-12-23T15:27:25.280Z,100.00
2022-12-23T15:29:49.465Z,100.00
2022-12-23T15:32:17.349Z,100.00
2022-12-23T15:34:44.351Z,100.00
2022-12-23T15:37:12.700Z,100.00
2022-12-23T15:39:43.924Z,100.00
2022-12-23T15:42:24.924Z,100.00
2022-12-23T15:44:54.963Z,100.00
2022-12-23T15:47:25.766Z,100.00
2022-12-23T15:49:52.738Z,100.00
2022-12-23T15:52:20.716Z,100.00
2022-12-23T15:55:11.364Z,100.00
2022-12-23T15:57:49.842Z,100.00
2022-12-23T16:00:21.011Z,100.00
2022-12-23T16:03:00.272Z,100.00
2022-12-23T16:05:34.062Z,100.00
2022-12-23T16:08:23.198Z,100.00
2022-12-23T16:11:02.378Z,100.00
2022-12-23T16:13:29.395Z,100.00
2022-12-23T16:16:19.917Z,100.00
2022-12-23T16:18:47.857Z,100.00
2022-12-23T16:21:15.220Z,100.00
2022-12-23T16:23:53.065Z,100.00
2022-12-23T16:26:21.286Z,100.00
2022-12-23T16:28:54.066Z,100.00
2022-12-23T16:31:21.224Z,100.00
2022-12-23T16:33:47.820Z,100.00
2022-12-23T16:36:18.540Z,100.00
2022-12-23T16:38:46.020Z,100.00
2022-12-23T16:41:13.058Z,100.00
2022-12-23T16:43:39.547Z,100.00
2022-12-23T16:46:08.158Z,100.00
2022-12-23T16:48:41.556Z,100.00
2022-12-23T16:51:12.940Z,100.00
2022-12-23T16:53:39.613Z,100.00
2022-12-23T16:56:14.128Z,100.00
2022-12-23T16:58:41.170Z,100.00
2022-12-23T17:01:14.542Z,100.00
2022-12-23T17:03:41.123Z,100.00
2022-12-23T17:06:13.659Z,100.00
2022-12-23T17:08:40.635Z,100.00
2022-12-23T17:11:14.852Z,100.00
2022-12-23T17:13:41.811Z,100.00
2022-12-23T17:16:20.088Z,100.00
2022-12-23T17:18:51.671Z,100.00
2022-12-23T17:21:26.450Z,100.00
2022-12-23T17:23:56.855Z,100.00
2022-12-23T17:26:23.376Z,100.00
2022-12-23T17:28:50.589Z,100.00
2022-12-23T17:31:26.302Z,100.00
2022-12-23T17:33:54.285Z,100.00
2022-12-23T17:36:21.624Z,100.00
2022-12-23T17:38:48.239Z,100.00
2022-12-23T17:41:29.085Z,100.00
2022-12-23T17:43:56.392Z,100.00
2022-12-23T17:46:23.554Z,100.00
2022-12-23T17:48:50.738Z,100.00
2022-12-23T17:51:20.049Z,100.00
2022-12-23T17:53:51.582Z,100.00
2022-12-23T17:56:22.074Z,100.00
2022-12-23T17:58:49.966Z,100.00
2022-12-23T18:01:29.813Z,100.00
2022-12-23T18:03:58.293Z,100.00
2022-12-23T18:06:26.919Z,100.00
2022-12-23T18:08:53.500Z,100.00
2022-12-23T18:11:27.821Z,100.00
2022-12-23T18:13:54.596Z,100.00
2022-12-23T18:16:21.154Z,100.00
2022-12-23T18:18:47.828Z,100.00
2022-12-23T18:21:22.410Z,100.00
2022-12-23T18:23:49.844Z,100.00
2022-12-23T18:26:16.417Z,100.00
2022-12-23T18:28:43.610Z,100.00
2022-12-23T18:31:23.921Z,100.00
2022-12-23T18:33:51.056Z,100.00
2022-12-23T18:36:30.390Z,100.00
2022-12-23T18:38:57.491Z,100.00
2022-12-23T18:41:25.435Z,100.00
2022-12-23T18:43:52.715Z,100.00
2022-12-23T18:46:20.418Z,100.00
2022-12-23T18:48:47.812Z,100.00
2022-12-23T18:51:19.409Z,100.00
2022-12-23T18:53:47.408Z,100.00
2022-12-23T18:56:15.799Z,100.00
2022-12-23T18:58:42.680Z,100.00
2022-12-23T19:01:13.938Z,100.00
2022-12-23T19:03:41.038Z,100.00
2022-12-23T19:06:09.513Z,100.00
2022-12-23T19:08:37.384Z,100.00
2022-12-23T19:11:16.006Z,100.00
2022-12-23T19:13:42.595Z,100.00
2022-12-23T19:16:13.551Z,100.00
2022-12-23T19:18:40.149Z,100.00
2022-12-23T19:21:06.717Z,100.00
2022-12-23T19:23:33.211Z,100.00
2022-12-23T19:25:59.736Z,100.00
2022-12-23T19:28:27.073Z,100.00
2022-12-23T19:30:53.609Z,100.00
2022-12-23T19:33:20.200Z,100.00
2022-12-23T19:35:46.769Z,100.00
2022-12-23T19:38:13.251Z,100.00
2022-12-23T19:40:40.607Z,100.00
2022-12-23T19:43:08.258Z,100.00
2022-12-23T19:45:34.785Z,100.00
2022-12-23T19:48:01.440Z,100.00
2022-12-23T19:50:28.177Z,100.00
2022-12-23T19:52:56.200Z,100.00
2022-12-23T19:55:23.161Z,100.00
2022-12-23T19:57:49.674Z,100.00
2022-12-23T20:00:16.339Z,100.00
2022-12-23T20:02:42.908Z,100.00
2022-12-23T20:05:10.201Z,100.00
2022-12-23T20:07:37.248Z,100.00
2022-12-23T20:10:05.424Z,100.00
2022-12-23T20:12:31.940Z,100.00
2022-12-23T20:14:58.455Z,100.00
2022-12-23T20:17:25.123Z,100.00
2022-12-23T20:19:51.854Z,100.00
2022-12-23T20:22:18.348Z,100.00
2022-12-23T20:24:45.119Z,100.00
2022-12-23T20:27:13.920Z,100.00
2022-12-23T20:29:42.391Z,100.00
2022-12-23T20:32:08.919Z,100.00
2022-12-23T20:34:39.597Z,100.00
2022-12-23T20:37:07.372Z,100.00
2022-12-23T20:39:34.555Z,100.00
2022-12-23T20:42:01.075Z,100.00
2022-12-23T20:44:36.607Z,100.00
2022-12-23T20:47:07.285Z,100.00
2022-12-23T20:49:33.837Z,100.00
2022-12-23T20:52:01.593Z,100.00
2022-12-23T20:54:33.216Z,100.00
2022-12-23T20:57:01.363Z,100.00
2022-12-23T20:59:28.004Z,100.00
2022-12-23T21:01:54.860Z,100.00
2022-12-23T21:04:22.464Z,100.00
2022-12-23T21:06:49.165Z,100.00
2022-12-23T21:09:16.021Z,100.00
2022-12-23T21:11:45.199Z,100.00
2022-12-23T21:14:12.628Z,100.00
2022-12-23T21:16:40.120Z,100.00
2022-12-23T21:19:16.532Z,100.00
2022-12-23T21:21:43.107Z,100.00
2022-12-23T21:24:10.151Z,100.00
2022-12-23T21:26:36.767Z,100.00
2022-12-23T21:29:06.203Z,100.00
2022-12-23T21:31:35.859Z,100.00
2022-12-23T21:34:02.512Z,100.00
2022-12-23T21:36:32.382Z,100.00
2022-12-23T21:38:59.635Z,100.00
2022-12-23T21:41:29.833Z,100.00
2022-12-23T21:43:57.767Z,100.00
2022-12-23T21:46:25.440Z,100.00
2022-12-23T21:48:52.089Z,100.00
2022-12-23T21:51:24.981Z,100.00
2022-12-23T21:53:53.640Z,100.00
2022-12-23T21:56:28.392Z,100.00
2022-12-23T21:58:59.303Z,100.00
2022-12-23T22:01:26.625Z,100.00
2022-12-23T22:03:54.155Z,100.00
2022-12-23T22:06:29.287Z,100.00
2022-12-23T22:08:57.830Z,100.00
2022-12-23T22:11:26.943Z,100.00
2022-12-23T22:13:55.041Z,100.00
2022-12-23T22:16:24.679Z,100.00
2022-12-23T22:18:52.142Z,100.00
2022-12-23T22:21:21.685Z,100.00
2022-12-23T22:23:49.466Z,100.00
2022-12-23T22:26:24.845Z,100.00
2022-12-23T22:28:56.238Z,100.00
2022-12-23T22:31:36.786Z,100.00
2022-12-23T22:34:04.333Z,100.00
2022-12-23T22:36:31.598Z,100.00
2022-12-23T22:39:00.015Z,100.00
2022-12-23T22:41:28.103Z,100.00
2022-12-23T22:43:55.278Z,100.00
2022-12-23T22:46:22.080Z,100.00
2022-12-23T22:48:49.104Z,100.00
2022-12-23T22:51:19.454Z,100.00
2022-12-23T22:53:46.907Z,100.00
2022-12-23T22:56:15.135Z,100.00
2022-12-23T22:58:42.481Z,100.00
2022-12-23T23:01:21.334Z,100.00
2022-12-23T23:03:51.029Z,100.00
2022-12-23T23:06:18.541Z,100.00
2022-12-23T23:08:45.066Z,100.00
2022-12-23T23:11:11.566Z,100.00
2022-12-23T23:13:38.091Z,100.00
2022-12-23T23:16:04.845Z,100.00
2022-12-23T23:18:31.482Z,100.00
2022-12-23T23:20:58.448Z,100.00
2022-12-23T23:23:25.048Z,100.00
2022-12-23T23:25:51.719Z,100.00
2022-12-23T23:28:18.466Z,100.00
2022-12-23T23:30:44.972Z,100.00
2022-12-23T23:33:12.003Z,100.00
2022-12-23T23:35:38.551Z,100.00
2022-12-23T23:38:05.111Z,100.00
2022-12-23T23:40:31.601Z,100.00
2022-12-23T23:42:58.103Z,100.00
2022-12-23T23:45:24.713Z,100.00
2022-12-23T23:47:51.258Z,100.00
2022-12-23T23:50:18.005Z,100.00
2022-12-23T23:52:44.554Z,100.00
2022-12-23T23:55:11.299Z,100.00
2022-12-23T23:57:38.144Z,100.00
